Skip Navigation LinksHome page > Weather > Current weather Skip Navigation Links

Current Weather

Honolulu Intl, Honolulu

For information only: do not use for flight planning or navigation.
Latest weather
Observation time Thursday, March 22, 2018 8:53 PM HST
Local time Thursday, March 22, 2018 9:19 PM HST
Flight conditions Visual Meteorological Conditions
Wind direction North-Northeast (20°)
Wind speed 5 mph
Visibility 10 mi.
Sky condition
Ceiling 8,000 ft. overcast
Cloud layer few clouds 2,600 ft.
Cloud layer scattered clouds 4,500 ft.
Cloud layer overcast 8,000 ft.
Temperature 71°F
Dewpoint 64°F
Altimeter 30.05 in.Hg
Derived measurements
Relative humidity 79%
Density altitude 926 ft.
Sea-level pressure 30.05 in.Hg
System requires maintenance.
Automated weather observing station with precipitation discriminator.
METAR PHNL 230653Z 02004KT 10SM FEW026 SCT045 OVC080 22/18 A3005 RMK AO2 SLP175 T02170178 $


Location code

InnerDrive.Weather 4.0.6615.0 Release CLR 4.0.30319.42000
Copyright ©2018 Inner Drive Technology. All rights reserved. Portions Copyright ©1986-2018 David Braverman.

Find weather

Site navigation

Skip Navigation Links

Place info

Page info

PayPal - The safer, easier way to pay online!

Return home.

Copyright ©2018 Inner Drive Technology. Purveyors of fine, hand-crafted computer software. Page printed 2018-03-23T07:19:46 UTC.